Time;durP1;ratioP1;P1;durP2;ratioP2;P2;SDS_P1;SDS_P2;PMS_P1;PMS_P2;Temp;Humidity;BMP_temperature;BMP_pressure;BME280_temperature;BME280_humidity;BME280_pressure;Samples;Min_cycle;Max_cycle;Signal;HPM_P1;HPM_P2
2023/01/04 00:02:24;;;;;;;3.20;2.17;;;5.30;99.90;;;;;;5076902;28;20495;-58
2023/01/04 00:04:51;;;;;;;3.38;1.90;;;5.30;99.90;;;;;;5076935;28;20428;-58
2023/01/04 00:07:18;;;;;;;3.03;2.10;;;5.30;99.90;;;;;;5076048;28;20429;-58
2023/01/04 00:09:45;;;;;;;3.47;2.00;;;5.30;99.90;;;;;;5077749;28;20496;-58
2023/01/04 00:12:12;;;;;;;2.50;2.00;;;5.20;99.90;;;;;;5075894;28;20742;-58
2023/01/04 00:14:39;;;;;;;2.70;2.13;;;5.20;99.90;;;;;;5076137;28;20704;-59
2023/01/04 00:17:07;;;;;;;2.97;2.35;;;5.20;99.90;;;;;;5075466;28;20717;-59
2023/01/04 00:19:35;;;;;;;3.25;2.28;;;5.20;99.90;;;;;;5075960;28;20522;-59
2023/01/04 00:22:02;;;;;;;2.70;2.30;;;5.10;99.90;;;;;;5077139;28;20420;-59
2023/01/04 00:24:30;;;;;;;3.40;2.17;;;5.20;99.90;;;;;;5076648;28;20431;-59
2023/01/04 00:26:57;;;;;;;3.92;2.65;;;5.10;99.90;;;;;;5076435;28;20428;-58
2023/01/04 00:29:24;;;;;;;3.70;2.58;;;5.10;99.90;;;;;;5077365;28;20584;-58
2023/01/04 00:31:51;;;;;;;2.78;2.00;;;5.20;99.90;;;;;;5076630;28;20510;-59
2023/01/04 00:34:19;;;;;;;2.97;2.10;;;5.20;99.90;;;;;;5077372;28;20428;-58
2023/01/04 00:36:47;;;;;;;3.60;2.05;;;5.10;99.90;;;;;;5076206;28;20535;-58
2023/01/04 00:39:16;;;;;;;3.50;2.20;;;5.10;99.90;;;;;;5077151;28;20502;-58
2023/01/04 00:41:46;;;;;;;2.80;1.70;;;5.00;99.90;;;;;;5077260;28;20818;-58
2023/01/04 00:44:14;;;;;;;2.80;1.90;;;4.80;99.90;;;;;;5077364;28;20801;-59
2023/01/04 00:46:42;;;;;;;3.10;2.00;;;4.80;99.90;;;;;;5075578;28;20428;-58
2023/01/04 00:49:11;;;;;;;3.88;2.38;;;4.80;99.90;;;;;;5075725;28;20794;-58
2023/01/04 00:51:40;;;;;;;3.45;2.30;;;4.80;99.90;;;;;;5075044;28;20412;-58
2023/01/04 00:54:12;;;;;;;3.60;1.85;;;4.80;99.90;;;;;;5076149;28;20527;-58
2023/01/04 00:56:39;;;;;;;2.55;1.98;;;4.80;99.90;;;;;;5075751;28;20412;-59
2023/01/04 00:59:07;;;;;;;4.00;1.90;;;4.80;99.90;;;;;;5076897;28;20430;-58
2023/01/04 01:01:35;;;;;;;2.25;2.03;;;4.70;99.90;;;;;;5076013;28;20447;-59
2023/01/04 01:04:04;;;;;;;2.83;1.75;;;4.70;99.90;;;;;;5075840;28;20463;-58
2023/01/04 01:06:32;;;;;;;3.42;1.90;;;4.90;99.90;;;;;;5076132;28;20452;-58
2023/01/04 01:09:00;;;;;;;2.80;1.80;;;4.90;99.90;;;;;;5075879;28;20509;-56
2023/01/04 01:11:29;;;;;;;3.60;1.60;;;4.80;99.90;;;;;;5075704;28;20485;-57
2023/01/04 01:13:57;;;;;;;2.70;1.50;;;4.80;99.90;;;;;;5075308;28;20471;-58
2023/01/04 01:16:25;;;;;;;2.13;1.40;;;5.00;99.90;;;;;;5075953;28;20426;-58
2023/01/04 01:18:54;;;;;;;2.70;1.65;;;4.90;99.90;;;;;;5075672;28;20428;-58
2023/01/04 01:21:23;;;;;;;2.53;1.70;;;5.00;99.90;;;;;;5074728;28;20454;-57
2023/01/04 01:23:50;;;;;;;2.63;1.70;;;4.90;99.90;;;;;;5075211;28;20427;-57
2023/01/04 01:26:20;;;;;;;2.80;1.70;;;4.90;99.90;;;;;;5075063;28;20431;-56
2023/01/04 01:28:49;;;;;;;2.40;1.30;;;4.90;99.90;;;;;;5075117;28;20510;-58
2023/01/04 01:31:18;;;;;;;2.30;1.40;;;4.90;99.90;;;;;;5076471;28;20422;-58
2023/01/04 01:33:47;;;;;;;2.00;1.30;;;5.20;99.90;;;;;;5075647;28;20459;-57
2023/01/04 01:36:16;;;;;;;2.60;1.30;;;5.20;99.90;;;;;;5075877;28;20503;-57
2023/01/04 01:38:43;;;;;;;2.13;1.30;;;5.20;99.90;;;;;;5075537;28;20427;-58
2023/01/04 01:41:18;;;;;;;2.05;1.50;;;5.10;99.90;;;;;;5075050;28;20518;-58
2023/01/04 01:43:55;;;;;;;2.40;1.40;;;5.00;99.90;;;;;;5075883;28;20432;-57
2023/01/04 01:46:26;;;;;;;2.40;1.20;;;5.00;99.90;;;;;;5076010;28;20823;-57
2023/01/04 01:48:56;;;;;;;2.10;1.30;;;5.00;99.90;;;;;;5074521;28;20427;-56
2023/01/04 01:51:24;;;;;;;2.10;1.20;;;5.00;99.90;;;;;;5076225;28;20424;-58
2023/01/04 01:53:57;;;;;;;1.80;1.50;;;5.10;99.90;;;;;;5075909;28;20526;-57
2023/01/04 01:56:28;;;;;;;1.92;1.20;;;5.30;99.90;;;;;;5075267;28;20859;-56
2023/01/04 01:58:58;;;;;;;2.38;1.30;;;5.30;99.90;;;;;;5074823;28;20427;-58
2023/01/04 02:01:26;;;;;;;2.15;1.10;;;5.20;99.90;;;;;;5074338;28;20498;-59
2023/01/04 02:03:54;;;;;;;2.20;1.02;;;5.20;99.90;;;;;;5075796;28;20522;-58
2023/01/04 02:06:27;;;;;;;1.83;1.10;;;5.20;99.90;;;;;;5074600;28;20870;-58
2023/01/04 02:08:55;;;;;;;1.55;0.90;;;5.20;99.90;;;;;;5075422;28;20450;-58
2023/01/04 02:11:22;;;;;;;2.08;1.02;;;5.40;99.90;;;;;;5072370;28;20950;-58
2023/01/04 02:16:57;;;;;;;1.60;1.00;;;5.30;99.90;;;;;;5074954;28;20406;-57
2023/01/04 02:19:42;;;;;;;2.08;1.10;;;5.30;99.90;;;;;;5075194;28;20566;-56
2023/01/04 02:22:40;;;;;;;1.88;0.90;;;5.40;99.90;;;;;;5074249;28;20518;-57
2023/01/04 02:25:52;;;;;;;2.30;0.90;;;5.50;99.90;;;;;;5071790;28;20518;-58
2023/01/04 02:28:26;;;;;;;2.10;1.00;;;5.40;99.90;;;;;;5059818;28;20435;-57
2023/01/04 02:31:25;;;;;;;1.63;0.98;;;5.40;99.90;;;;;;5072987;28;20435;-57
2023/01/04 02:33:59;;;;;;;1.70;0.90;;;5.50;99.90;;;;;;5075159;28;20510;-58
2023/01/04 02:36:36;;;;;;;1.70;0.90;;;5.40;99.90;;;;;;5074653;28;20502;-58
2023/01/04 02:39:13;;;;;;;1.80;1.10;;;5.40;99.90;;;;;;5072984;28;20435;-58
2023/01/04 02:41:46;;;;;;;1.23;0.80;;;5.50;99.90;;;;;;5054225;28;20417;-58
2023/01/04 02:47:06;;;;;;;1.40;0.75;;;5.50;99.90;;;;;;5054125;28;20471;-57
2023/01/04 02:52:19;;;;;;;1.20;0.80;;;5.50;99.90;;;;;;5074115;28;20724;-57
2023/01/04 02:54:48;;;;;;;2.17;0.90;;;5.50;99.90;;;;;;5074774;28;20853;-58
2023/01/04 02:57:40;;;;;;;2.30;0.90;;;5.50;99.90;;;;;;5073307;28;20432;-57
2023/01/04 03:00:19;;;;;;;2.20;0.90;;;5.50;99.90;;;;;;5074255;28;20506;-58
2023/01/04 03:06:17;;;;;;;2.50;0.90;;;5.50;99.90;;;;;;5074667;28;20406;-58
2023/01/04 03:08:56;;;;;;;1.30;0.80;;;5.50;99.90;;;;;;5074340;28;20444;-57
2023/01/04 03:14:19;;;;;;;1.40;0.90;;;5.40;99.90;;;;;;5074553;28;20410;-58
2023/01/04 03:16:49;;;;;;;1.60;1.00;;;5.30;99.90;;;;;;5074335;28;20506;-58
2023/01/04 03:19:50;;;;;;;1.40;0.90;;;5.30;99.90;;;;;;5074420;28;20432;-58
2023/01/04 03:36:09;;;;;;;1.70;1.00;;;5.10;99.90;;;;;;5074422;28;20418;-58
2023/01/04 03:50:06;;;;;;;1.40;0.90;;;5.20;99.90;;;;;;5072821;28;20892;-58
2023/01/04 03:52:36;;;;;;;1.60;0.90;;;5.20;99.90;;;;;;5073012;28;20424;-57
2023/01/04 03:55:06;;;;;;;1.20;0.80;;;5.20;99.90;;;;;;5073991;28;20427;-57
2023/01/04 03:57:34;;;;;;;2.30;0.90;;;5.20;99.90;;;;;;5074409;28;20426;-58
2023/01/04 04:00:08;;;;;;;0.95;0.70;;;5.30;99.90;;;;;;5073325;28;20455;-58
2023/01/04 04:02:36;;;;;;;1.80;0.80;;;5.30;99.90;;;;;;5073628;28;20972;-57
2023/01/04 04:10:34;;;;;;;1.10;0.70;;;5.50;99.90;;;;;;5073838;28;20854;-58
2023/01/04 04:13:01;;;;;;;1.10;0.70;;;5.40;99.90;;;;;;5077352;28;20436;-57
2023/01/04 04:15:28;;;;;;;0.90;0.60;;;5.50;99.90;;;;;;5077184;28;20858;-58
2023/01/04 04:17:55;;;;;;;0.90;0.60;;;5.60;99.90;;;;;;5077511;28;20531;-57
2023/01/04 04:20:23;;;;;;;1.35;0.60;;;5.70;99.90;;;;;;5075845;28;20424;-56
2023/01/04 04:22:52;;;;;;;1.00;0.60;;;5.90;99.90;;;;;;5077113;28;20427;-57
2023/01/04 04:25:19;;;;;;;0.90;0.60;;;5.80;99.90;;;;;;5077050;28;20522;-58
2023/01/04 04:27:46;;;;;;;1.15;0.70;;;5.90;99.90;;;;;;5077024;28;20800;-56
2023/01/04 04:30:14;;;;;;;0.60;0.40;;;5.80;99.90;;;;;;5075852;28;20423;-55
2023/01/04 04:32:41;;;;;;;0.90;0.60;;;5.90;99.90;;;;;;5077669;28;20419;-58
2023/01/04 04:35:09;;;;;;;1.00;0.50;;;5.90;99.90;;;;;;5076659;28;20423;-58
2023/01/04 04:37:36;;;;;;;1.10;0.70;;;6.00;99.90;;;;;;5077347;28;20510;-59
2023/01/04 04:40:05;;;;;;;0.90;0.60;;;6.00;99.90;;;;;;5077124;28;20459;-60
2023/01/04 04:42:32;;;;;;;1.50;0.80;;;5.90;99.90;;;;;;5077306;28;20911;-60
2023/01/04 04:44:59;;;;;;;1.00;0.60;;;5.90;99.90;;;;;;5076397;28;20943;-59
2023/01/04 04:47:26;;;;;;;0.90;0.60;;;5.90;99.90;;;;;;5076654;28;20438;-59
2023/01/04 04:49:53;;;;;;;1.00;0.50;;;5.90;99.90;;;;;;5077180;28;20548;-59
2023/01/04 04:52:20;;;;;;;0.80;0.50;;;6.00;99.90;;;;;;5075594;28;20425;-60
2023/01/04 04:54:48;;;;;;;1.10;0.50;;;5.90;99.90;;;;;;5076582;28;20433;-60
2023/01/04 04:57:16;;;;;;;0.90;0.50;;;6.00;99.90;;;;;;5075418;28;20513;-59
2023/01/04 04:59:43;;;;;;;0.80;0.50;;;6.00;99.90;;;;;;5076562;28;20507;-60
2023/01/04 05:02:10;;;;;;;1.30;0.70;;;6.20;99.90;;;;;;5076567;28;20514;-60
2023/01/04 05:04:38;;;;;;;0.70;0.50;;;6.10;99.90;;;;;;5076606;28;20434;-60
2023/01/04 05:07:05;;;;;;;1.10;0.50;;;6.20;99.90;;;;;;5069336;28;20471;-60
2023/01/04 05:09:32;;;;;;;0.77;0.50;;;6.30;99.90;;;;;;5077077;28;20891;-60
2023/01/04 05:14:45;;;;;;;0.70;0.40;;;6.20;99.90;;;;;;5074002;28;20403;-58
2023/01/04 05:17:12;;;;;;;1.30;0.40;;;6.40;99.90;;;;;;5075056;28;20474;-57
2023/01/04 05:19:40;;;;;;;1.33;0.50;;;6.40;99.90;;;;;;5075750;28;20423;-58
2023/01/04 05:22:07;;;;;;;0.70;0.40;;;6.30;99.90;;;;;;5074949;28;20781;-58
2023/01/04 05:24:34;;;;;;;0.70;0.40;;;6.40;99.90;;;;;;5074356;28;20446;-58
2023/01/04 05:27:01;;;;;;;0.80;0.40;;;6.30;99.90;;;;;;5074165;28;20922;-58
2023/01/04 05:32:14;;;;;;;1.13;0.40;;;6.70;99.90;;;;;;5075270;28;20411;-58
2023/01/04 05:34:42;;;;;;;0.80;0.50;;;6.70;99.90;;;;;;5073910;28;20927;-58
2023/01/04 05:37:09;;;;;;;1.00;0.50;;;6.70;99.90;;;;;;5075199;28;20775;-59
2023/01/04 05:39:36;;;;;;;0.85;0.50;;;6.70;99.90;;;;;;5076436;28;20477;-58
2023/01/04 05:44:48;;;;;;;0.80;0.40;;;6.80;99.90;;;;;;5075697;28;20454;-59
2023/01/04 05:47:17;;;;;;;0.95;0.50;;;6.70;99.90;;;;;;5074698;28;20423;-58
2023/01/04 05:49:44;;;;;;;0.60;0.40;;;6.70;99.90;;;;;;5075553;28;20424;-58
2023/01/04 05:52:11;;;;;;;0.90;0.40;;;6.60;99.90;;;;;;5073239;28;20427;-58
2023/01/04 05:54:39;;;;;;;0.75;0.50;;;6.60;99.90;;;;;;5074629;28;20485;-58
2023/01/04 05:57:06;;;;;;;0.80;0.50;;;6.70;99.90;;;;;;5074008;28;20799;-58
2023/01/04 05:59:33;;;;;;;0.70;0.47;;;6.70;99.90;;;;;;5074476;28;20439;-58
2023/01/04 06:02:01;;;;;;;0.80;0.40;;;6.80;99.90;;;;;;5073209;28;20461;-58
2023/01/04 06:04:29;;;;;;;0.70;0.50;;;6.80;99.90;;;;;;5073949;28;20538;-58
2023/01/04 06:06:57;;;;;;;0.80;0.40;;;6.80;99.90;;;;;;5074032;28;20516;-58
2023/01/04 06:09:26;;;;;;;0.70;0.50;;;6.80;99.90;;;;;;5072738;28;20438;-58
2023/01/04 06:11:53;;;;;;;1.10;0.40;;;6.80;99.90;;;;;;5075026;28;20444;-58
2023/01/04 06:14:20;;;;;;;0.60;0.40;;;6.90;99.90;;;;;;5074798;28;20443;-58
2023/01/04 06:16:47;;;;;;;0.60;0.40;;;6.90;99.90;;;;;;5073674;28;20426;-58
2023/01/04 06:19:15;;;;;;;0.80;0.40;;;6.90;99.90;;;;;;5072425;28;20442;-58
2023/01/04 06:21:43;;;;;;;0.70;0.40;;;6.90;99.90;;;;;;5074824;28;20428;-57
2023/01/04 06:24:11;;;;;;;0.70;0.40;;;6.90;99.90;;;;;;5074392;28;20430;-58
2023/01/04 06:26:39;;;;;;;1.00;0.40;;;7.00;99.90;;;;;;5072932;28;20511;-58
2023/01/04 06:29:06;;;;;;;0.70;0.40;;;6.90;99.90;;;;;;5056046;28;20433;-57
2023/01/04 06:31:33;;;;;;;0.70;0.40;;;6.90;99.90;;;;;;5053672;28;20449;-57
2023/01/04 06:34:01;;;;;;;0.60;0.40;;;7.00;99.90;;;;;;5052935;28;20460;-58
2023/01/04 06:36:28;;;;;;;0.70;0.40;;;7.20;99.90;;;;;;5052629;28;20805;-58
2023/01/04 06:38:58;;;;;;;0.90;0.40;;;7.40;99.90;;;;;;5071238;28;20429;-58
2023/01/04 06:41:26;;;;;;;0.70;0.40;;;7.30;99.90;;;;;;5072731;28;20419;-58
2023/01/04 06:43:53;;;;;;;0.73;0.50;;;7.30;99.90;;;;;;5074457;28;20423;-58
2023/01/04 06:46:20;;;;;;;0.70;0.40;;;7.20;99.90;;;;;;5071485;28;20617;-58
2023/01/04 06:48:47;;;;;;;0.77;0.40;;;7.10;99.90;;;;;;5072703;28;20529;-59
2023/01/04 06:51:15;;;;;;;0.70;0.30;;;7.10;99.90;;;;;;5072442;28;20907;-58
2023/01/04 06:53:42;;;;;;;0.90;0.40;;;7.00;99.90;;;;;;5072812;28;20427;-57
2023/01/04 06:56:11;;;;;;;0.60;0.40;;;7.00;99.90;;;;;;5070580;28;20657;-58
2023/01/04 06:58:38;;;;;;;0.80;0.40;;;7.00;99.90;;;;;;5071717;28;20518;-58
2023/01/04 07:01:06;;;;;;;0.70;0.40;;;7.00;99.90;;;;;;5070781;28;20415;-58
2023/01/04 07:03:33;;;;;;;0.70;0.40;;;7.00;99.90;;;;;;5071098;28;20502;-58
2023/01/04 07:06:04;;;;;;;1.40;0.40;;;7.10;99.90;;;;;;5073336;28;20452;-59
2023/01/04 07:08:32;;;;;;;0.60;0.30;;;7.10;99.90;;;;;;5071171;28;20435;-59
2023/01/04 07:10:59;;;;;;;1.10;0.40;;;7.10;99.90;;;;;;5071850;28;20420;-59
2023/01/04 07:13:28;;;;;;;0.70;0.30;;;7.10;99.90;;;;;;5071224;28;20461;-59
2023/01/04 07:15:55;;;;;;;0.60;0.30;;;7.10;99.90;;;;;;5073760;28;20506;-58
2023/01/04 07:18:23;;;;;;;1.30;0.30;;;7.10;99.90;;;;;;5072132;28;20514;-59
2023/01/04 07:20:50;;;;;;;1.77;0.50;;;7.10;99.90;;;;;;5072092;28;20434;-59
2023/01/04 07:23:17;;;;;;;0.95;0.30;;;7.30;99.90;;;;;;5069680;28;20440;-60
2023/01/04 07:25:44;;;;;;;0.50;0.30;;;7.30;99.90;;;;;;5072243;28;20522;-59
2023/01/04 07:29:12;;;;;;;0.50;0.30;;;7.30;99.90;;;;;;5071986;28;20442;-59
2023/01/04 07:31:04;;;;;;;1.30;0.65;;;7.50;99.90;;;;;;5068018;28;20854;-59
2023/01/04 07:33:32;;;;;;;0.60;0.30;;;7.40;99.90;;;;;;5070053;28;20850;-58
2023/01/04 07:36:03;;;;;;;0.60;0.30;;;7.50;99.90;;;;;;5070982;28;20419;-58
2023/01/04 07:38:30;;;;;;;0.50;0.30;;;7.60;99.90;;;;;;5068555;28;20427;-57
2023/01/04 07:41:00;;;;;;;0.60;0.30;;;7.60;99.90;;;;;;5067083;28;20458;-56
2023/01/04 07:43:29;;;;;;;1.00;0.30;;;7.70;99.90;;;;;;5070799;28;20511;-57
2023/01/04 07:45:56;;;;;;;1.00;0.30;;;7.50;99.90;;;;;;5072402;28;20464;-58
2023/01/04 07:48:25;;;;;;;1.58;0.30;;;7.40;99.90;;;;;;5074848;28;20536;-57
2023/01/04 07:50:52;;;;;;;0.50;0.30;;;7.40;99.90;;;;;;5073046;28;20492;-57
2023/01/04 07:53:19;;;;;;;0.65;0.30;;;7.30;99.90;;;;;;5075778;28;20438;-56
2023/01/04 07:55:46;;;;;;;0.50;0.30;;;7.20;99.90;;;;;;5076437;28;20423;-57
2023/01/04 07:58:14;;;;;;;0.50;0.30;;;7.30;99.90;;;;;;5076880;28;20521;-56
2023/01/04 08:00:41;;;;;;;0.50;0.30;;;7.30;99.90;;;;;;5074053;28;20498;-57
2023/01/04 08:03:08;;;;;;;0.40;0.20;;;7.30;99.90;;;;;;5075010;28;20423;-58
2023/01/04 08:05:37;;;;;;;0.90;0.20;;;7.30;99.90;;;;;;5076939;28;20470;-58
2023/01/04 08:08:10;;;;;;;0.98;0.30;;;7.30;99.90;;;;;;5074711;28;20436;-57
2023/01/04 08:10:38;;;;;;;1.08;0.20;;;7.30;99.90;;;;;;5074686;28;20419;-58
2023/01/04 08:13:05;;;;;;;0.40;0.20;;;7.20;99.90;;;;;;5075577;28;20920;-57
2023/01/04 08:15:32;;;;;;;0.50;0.20;;;7.20;99.90;;;;;;5075941;28;20424;-56
2023/01/04 08:17:59;;;;;;;0.80;0.20;;;7.10;99.90;;;;;;5074944;28;20510;-56
2023/01/04 08:20:26;;;;;;;0.50;0.20;;;7.20;99.90;;;;;;5075417;28;20518;-57
2023/01/04 08:22:55;;;;;;;0.50;0.20;;;7.20;99.90;;;;;;5076145;28;20444;-55
2023/01/04 08:25:22;;;;;;;0.40;0.20;;;7.30;99.90;;;;;;5074544;28;20502;-55
2023/01/04 08:27:49;;;;;;;0.40;0.20;;;7.30;99.90;;;;;;5074636;28;20425;-55
2023/01/04 08:30:17;;;;;;;1.00;0.20;;;7.30;99.90;;;;;;5075969;28;20423;-55
2023/01/04 08:32:44;;;;;;;0.50;0.20;;;7.40;99.90;;;;;;5074326;28;20432;-54
2023/01/04 08:35:11;;;;;;;0.50;0.20;;;7.40;99.90;;;;;;5074830;28;20497;-56
2023/01/04 08:37:38;;;;;;;0.60;0.30;;;7.50;99.90;;;;;;5067634;28;20889;-54
2023/01/04 08:40:09;;;;;;;0.65;0.22;;;7.40;99.90;;;;;;5063367;28;20522;-56
2023/01/04 08:42:36;;;;;;;0.60;0.20;;;7.40;99.90;;;;;;5066912;28;20439;-56
2023/01/04 08:45:04;;;;;;;0.50;0.20;;;7.40;99.90;;;;;;5067156;28;20486;-58
2023/01/04 08:47:32;;;;;;;0.40;0.20;;;7.30;99.90;;;;;;5069056;28;20435;-58
2023/01/04 08:50:00;;;;;;;0.70;0.20;;;7.30;99.90;;;;;;5073847;28;20522;-58
2023/01/04 08:52:27;;;;;;;0.50;0.20;;;7.30;99.90;;;;;;5073533;28;20493;-58
2023/01/04 08:54:54;;;;;;;0.60;0.20;;;7.30;99.90;;;;;;5071015;28;20535;-58
2023/01/04 08:57:23;;;;;;;0.40;0.20;;;7.40;99.90;;;;;;5070999;28;20459;-55
2023/01/04 08:59:50;;;;;;;0.55;0.20;;;7.50;99.90;;;;;;5072087;28;20418;-57
2023/01/04 09:02:22;;;;;;;0.70;0.20;;;7.60;99.90;;;;;;5073484;28;20427;-57
2023/01/04 09:04:49;;;;;;;0.60;0.30;;;7.70;99.90;;;;;;5071697;28;20522;-57
2023/01/04 09:07:17;;;;;;;0.50;0.20;;;7.70;99.90;;;;;;5070152;28;20419;-58
2023/01/04 09:09:44;;;;;;;0.80;0.20;;;7.70;99.90;;;;;;5072633;28;20511;-54
2023/01/04 09:12:11;;;;;;;1.00;0.30;;;7.70;99.90;;;;;;5076048;28;20458;-55
2023/01/04 09:14:40;;;;;;;0.52;0.28;;;7.70;99.90;;;;;;5074595;28;20427;-52
2023/01/04 09:17:07;;;;;;;0.80;0.30;;;7.80;99.90;;;;;;5073370;28;20511;-55
2023/01/04 09:19:35;;;;;;;0.50;0.30;;;7.70;99.90;;;;;;5071420;28;20444;-52
2023/01/04 09:22:02;;;;;;;0.63;0.30;;;7.70;99.90;;;;;;5088667;28;20836;-55
2023/01/04 09:24:29;;;;;;;0.40;0.20;;;7.80;99.90;;;;;;5082016;28;20497;-56
2023/01/04 09:26:56;;;;;;;0.40;0.20;;;7.80;99.90;;;;;;5072562;28;20439;-53
2023/01/04 09:29:26;;;;;;;0.50;0.30;;;7.80;99.90;;;;;;5073539;28;20433;-55
2023/01/04 09:31:55;;;;;;;0.65;0.30;;;7.90;99.90;;;;;;5072686;28;20792;-55
2023/01/04 09:34:22;;;;;;;0.80;0.20;;;7.90;99.90;;;;;;5071252;28;20469;-55
2023/01/04 09:36:50;;;;;;;0.40;0.20;;;7.90;99.90;;;;;;5060745;28;20480;-56
2023/01/04 09:39:18;;;;;;;0.50;0.20;;;8.00;99.90;;;;;;5069460;28;20424;-56
2023/01/04 09:41:51;;;;;;;0.65;0.30;;;8.20;99.90;;;;;;5070556;28;20550;-53
2023/01/04 09:44:30;;;;;;;0.60;0.30;;;8.20;99.90;;;;;;5071057;28;20508;-54
2023/01/04 09:47:04;;;;;;;1.00;0.30;;;8.20;99.90;;;;;;5070560;28;20435;-55
2023/01/04 09:49:38;;;;;;;0.50;0.30;;;8.20;99.90;;;;;;5071454;28;20438;-55
2023/01/04 09:52:13;;;;;;;0.60;0.20;;;8.30;99.90;;;;;;5072882;28;20530;-55
2023/01/04 09:54:46;;;;;;;0.60;0.30;;;8.40;99.90;;;;;;5073408;28;20426;-57
2023/01/04 09:57:20;;;;;;;0.43;0.20;;;8.50;99.90;;;;;;5073111;28;20424;-56
2023/01/04 09:59:50;;;;;;;1.02;0.30;;;8.50;99.90;;;;;;5071517;28;20451;-56
2023/01/04 10:02:25;;;;;;;0.90;0.40;;;8.70;99.90;;;;;;5069611;28;20576;-57
2023/01/04 10:04:53;;;;;;;0.50;0.30;;;8.80;99.90;;;;;;5074215;28;20435;-56
2023/01/04 10:07:26;;;;;;;0.43;0.20;;;8.70;99.90;;;;;;5068795;28;20435;-58
2023/01/04 10:09:54;;;;;;;0.60;0.30;;;8.60;99.90;;;;;;5069027;28;20522;-58
2023/01/04 10:12:37;;;;;;;0.40;0.20;;;8.60;99.90;;;;;;5073175;28;20514;-58
2023/01/04 10:15:22;;;;;;;0.50;0.20;;;8.50;99.90;;;;;;5074595;28;20473;-57
2023/01/04 10:18:09;;;;;;;0.50;0.20;;;8.60;99.90;;;;;;5071938;28;20494;-57
2023/01/04 10:20:56;;;;;;;0.50;0.20;;;8.70;99.90;;;;;;5072741;28;20426;-57
2023/01/04 10:23:34;;;;;;;2.10;0.25;;;8.70;99.90;;;;;;5074323;28;20787;-57
2023/01/04 10:26:11;;;;;;;0.60;0.30;;;8.60;99.90;;;;;;5070901;28;20455;-57
2023/01/04 10:29:00;;;;;;;0.50;0.20;;;8.60;99.90;;;;;;5071733;28;20436;-57
2023/01/04 10:31:31;;;;;;;0.40;0.20;;;8.70;99.90;;;;;;5071038;28;20420;-58
2023/01/04 10:34:06;;;;;;;0.80;0.30;;;8.70;99.90;;;;;;5073705;28;20865;-59
2023/01/04 10:36:33;;;;;;;0.40;0.20;;;8.70;99.90;;;;;;5074225;28;20514;-59
2023/01/04 10:39:04;;;;;;;0.45;0.20;;;8.70;99.90;;;;;;5072111;28;20502;-58
2023/01/04 10:41:36;;;;;;;0.52;0.20;;;8.80;99.90;;;;;;5071451;28;20421;-58
2023/01/04 10:44:14;;;;;;;1.00;0.20;;;8.80;99.90;;;;;;5071802;28;20526;-58
2023/01/04 10:46:47;;;;;;;0.60;0.20;;;9.10;99.90;;;;;;5072006;28;20426;-58
2023/01/04 10:49:23;;;;;;;0.47;0.20;;;9.10;99.90;;;;;;5071482;28;20808;-59
2023/01/04 10:51:56;;;;;;;0.40;0.20;;;9.20;99.90;;;;;;5070221;28;20534;-58
2023/01/04 10:54:28;;;;;;;0.40;0.20;;;9.20;99.90;;;;;;5068608;28;20818;-58
2023/01/04 10:57:01;;;;;;;0.50;0.20;;;9.30;99.90;;;;;;5074497;28;20412;-58
2023/01/04 10:59:36;;;;;;;0.40;0.20;;;9.30;99.90;;;;;;5068055;28;20484;-59
2023/01/04 11:02:13;;;;;;;0.40;0.20;;;9.30;99.90;;;;;;5062433;28;20704;-58
2023/01/04 11:04:48;;;;;;;0.90;0.20;;;9.20;99.90;;;;;;5070458;28;20431;-59
2023/01/04 11:07:19;;;;;;;1.00;0.20;;;9.30;99.90;;;;;;5072662;28;20798;-57
2023/01/04 11:09:52;;;;;;;0.43;0.20;;;9.30;99.90;;;;;;5071596;28;20514;-58
2023/01/04 11:12:22;;;;;;;1.10;0.30;;;9.40;99.90;;;;;;5071687;28;20419;-58
2023/01/04 11:14:51;;;;;;;0.57;0.20;;;9.40;99.90;;;;;;5070809;28;20502;-58
2023/01/04 11:17:20;;;;;;;0.40;0.20;;;9.40;99.90;;;;;;5066391;28;20902;-58
2023/01/04 11:19:48;;;;;;;0.43;0.20;;;9.40;99.90;;;;;;5073302;28;20579;-58
2023/01/04 11:22:21;;;;;;;0.80;0.20;;;9.50;99.90;;;;;;5076398;28;20510;-59
2023/01/04 11:24:53;;;;;;;0.80;0.20;;;9.50;99.90;;;;;;5075707;28;20451;-58
2023/01/04 11:27:26;;;;;;;0.60;0.20;;;9.60;99.90;;;;;;5056193;28;20439;-59
2023/01/04 11:30:00;;;;;;;0.50;0.20;;;9.60;99.90;;;;;;5074039;28;20842;-58
2023/01/04 11:32:38;;;;;;;0.45;0.20;;;9.60;99.90;;;;;;5073831;28;20821;-58
2023/01/04 11:35:07;;;;;;;0.40;0.20;;;9.70;99.90;;;;;;5074410;28;20423;-58
2023/01/04 11:37:36;;;;;;;0.70;0.20;;;9.70;99.90;;;;;;5072428;28;20920;-59
2023/01/04 11:40:26;;;;;;;0.35;0.20;;;9.60;99.90;;;;;;5071645;28;20412;-59
2023/01/04 11:43:15;;;;;;;0.40;0.20;;;9.70;99.90;;;;;;5073499;28;20423;-58
2023/01/04 11:45:53;;;;;;;0.50;0.30;;;9.80;99.90;;;;;;5075251;28;20411;-58
2023/01/04 11:48:32;;;;;;;0.50;0.20;;;9.90;99.90;;;;;;5076281;28;20783;-59
2023/01/04 11:51:01;;;;;;;0.40;0.20;;;9.80;99.90;;;;;;5073623;28;20506;-58
2023/01/04 11:53:31;;;;;;;0.50;0.20;;;9.80;99.90;;;;;;5074973;28;20459;-58
2023/01/04 11:56:17;;;;;;;0.80;0.20;;;9.80;99.90;;;;;;5069595;28;20502;-58
2023/01/04 11:59:02;;;;;;;0.60;0.30;;;10.00;99.90;;;;;;5067543;28;20424;-59
2023/01/04 12:01:29;;;;;;;0.73;0.20;;;10.00;99.90;;;;;;5055008;28;20428;-59
2023/01/04 12:03:58;;;;;;;0.60;0.30;;;9.90;99.90;;;;;;5055542;28;20467;-59
2023/01/04 12:06:34;;;;;;;0.35;0.20;;;9.80;99.90;;;;;;5055170;28;20431;-60
2023/01/04 12:09:01;;;;;;;0.50;0.20;;;9.80;99.90;;;;;;5054894;28;20536;-59
2023/01/04 12:11:30;;;;;;;0.50;0.20;;;9.80;99.90;;;;;;5054594;28;20457;-60
2023/01/04 12:13:59;;;;;;;0.50;0.30;;;9.80;99.90;;;;;;5054256;28;20433;-59
2023/01/04 12:16:38;;;;;;;0.57;0.20;;;9.80;99.90;;;;;;5055396;28;20410;-59
2023/01/04 12:19:05;;;;;;;0.57;0.30;;;9.80;99.90;;;;;;5055621;28;20421;-60
2023/01/04 12:21:35;;;;;;;0.90;0.43;;;9.90;99.90;;;;;;5054787;28;20472;-60
2023/01/04 12:24:07;;;;;;;0.77;0.22;;;10.00;99.90;;;;;;5054648;28;20532;-59
2023/01/04 12:26:41;;;;;;;0.60;0.20;;;10.00;99.90;;;;;;5054020;28;20752;-59
2023/01/04 12:29:48;;;;;;;0.60;0.30;;;10.00;99.90;;;;;;5055034;28;20448;-60
2023/01/04 12:32:44;;;;;;;0.60;0.20;;;10.10;99.90;;;;;;5066542;28;20611;-62
2023/01/04 12:35:58;;;;;;;0.40;0.20;;;10.20;99.90;;;;;;5058997;28;20553;-60
2023/01/04 12:39:04;;;;;;;0.50;0.30;;;10.10;99.90;;;;;;5071415;28;20734;-60
2023/01/04 12:42:14;;;;;;;1.40;0.20;;;10.00;99.90;;;;;;5058523;28;20507;-59
2023/01/04 12:45:21;;;;;;;0.50;0.30;;;10.00;99.90;;;;;;5073326;28;20484;-59
2023/01/04 12:51:19;;;;;;;1.05;0.30;;;10.10;99.90;;;;;;5074374;28;20423;-60
2023/01/04 12:53:58;;;;;;;0.80;0.30;;;10.10;99.90;;;;;;5029814;28;21170;-59
2023/01/04 12:57:17;;;;;;;0.50;0.20;;;10.10;99.90;;;;;;5029736;28;20423;-59
2023/01/04 12:59:54;;;;;;;0.60;0.30;;;10.10;99.90;;;;;;5066760;28;20415;-59
2023/01/04 13:02:23;;;;;;;0.50;0.20;;;10.20;99.90;;;;;;5072435;28;20430;-59
2023/01/04 13:04:54;;;;;;;0.50;0.20;;;10.10;99.90;;;;;;5071576;28;20442;-58
2023/01/04 13:07:25;;;;;;;0.50;0.30;;;10.20;99.90;;;;;;5072077;28;20809;-58
2023/01/04 13:09:58;;;;;;;0.70;0.30;;;10.20;99.90;;;;;;5080699;28;20429;-59
2023/01/04 13:12:59;;;;;;;0.50;0.40;;;10.20;99.90;;;;;;5075090;28;20463;-59
2023/01/04 13:15:43;;;;;;;0.60;0.20;;;10.20;99.90;;;;;;5066051;28;20492;-59
2023/01/04 13:18:33;;;;;;;0.40;0.20;;;10.30;99.90;;;;;;5070195;28;20938;-59
2023/01/04 13:21:04;;;;;;;1.35;0.30;;;10.30;99.90;;;;;;5056431;28;20439;-60
2023/01/04 13:23:31;;;;;;;1.10;0.30;;;10.40;99.90;;;;;;5070648;28;20457;-59
2023/01/04 13:26:44;;;;;;;0.40;0.20;;;10.40;99.90;;;;;;5069828;28;20438;-60
2023/01/04 13:29:15;;;;;;;0.50;0.30;;;10.40;99.90;;;;;;5009864;28;20515;-60
2023/01/04 13:31:52;;;;;;;1.10;0.30;;;10.40;99.90;;;;;;5055503;28;20835;-60
2023/01/04 13:34:23;;;;;;;0.50;0.20;;;10.60;99.90;;;;;;5066750;28;20432;-60
2023/01/04 13:37:06;;;;;;;0.50;0.20;;;10.50;99.90;;;;;;5059172;28;20586;-59
2023/01/04 13:39:34;;;;;;;1.00;0.20;;;10.50;99.90;;;;;;5061721;28;20755;-60
2023/01/04 13:42:02;;;;;;;0.37;0.20;;;10.50;99.90;;;;;;5073116;28;20669;-60
2023/01/04 13:45:01;;;;;;;1.20;0.20;;;10.60;99.90;;;;;;5073342;28;20826;-59
2023/01/04 13:47:33;;;;;;;0.50;0.20;;;10.60;99.90;;;;;;5059395;28;20421;-59
2023/01/04 13:50:01;;;;;;;1.00;0.30;;;10.70;99.90;;;;;;5093582;28;20512;-60
2023/01/04 13:52:30;;;;;;;0.70;0.30;;;10.70;99.90;;;;;;5094245;28;20454;-59
2023/01/04 13:55:11;;;;;;;0.70;0.30;;;10.70;99.90;;;;;;5081138;28;20494;-60
2023/01/04 13:57:38;;;;;;;0.40;0.20;;;10.70;99.90;;;;;;5073928;28;20455;-61
2023/01/04 14:00:08;;;;;;;0.40;0.20;;;10.70;99.90;;;;;;5081812;28;20834;-61
2023/01/04 14:02:35;;;;;;;0.80;0.20;;;10.80;99.90;;;;;;5081392;28;20485;-59
2023/01/04 14:05:03;;;;;;;0.80;0.20;;;10.80;99.90;;;;;;5071766;28;20515;-60
2023/01/04 14:07:31;;;;;;;0.40;0.20;;;10.80;99.90;;;;;;5090888;28;20800;-60
2023/01/04 14:10:00;;;;;;;0.80;0.20;;;10.80;99.90;;;;;;5092319;28;20464;-61
2023/01/04 14:12:29;;;;;;;0.32;0.20;;;10.80;99.90;;;;;;5076588;28;20522;-60
2023/01/04 14:14:58;;;;;;;1.10;0.20;;;10.80;99.90;;;;;;5060337;28;20930;-60
2023/01/04 14:17:36;;;;;;;0.40;0.20;;;10.80;99.90;;;;;;5063640;28;20513;-60